sensor_id;sensor_type;location;lat;lon;timestamp;P1;durP1;ratioP1;P2;durP2;ratioP2
16760;SDS011;8498;52.516;13.790;2022-11-12T00:01:20;7.60;;;5.33;;
16760;SDS011;8498;52.516;13.790;2022-11-12T00:07:00;6.30;;;4.60;;
16760;SDS011;8498;52.516;13.790;2022-11-12T00:12:41;7.37;;;5.20;;
16760;SDS011;8498;52.516;13.790;2022-11-12T00:18:23;9.73;;;5.40;;
16760;SDS011;8498;52.516;13.790;2022-11-12T00:24:05;6.90;;;5.03;;
16760;SDS011;8498;52.516;13.790;2022-11-12T00:29:46;7.33;;;5.27;;
16760;SDS011;8498;52.516;13.790;2022-11-12T00:35:27;7.33;;;4.67;;
16760;SDS011;8498;52.516;13.790;2022-11-12T00:41:09;7.80;;;4.83;;
16760;SDS011;8498;52.516;13.790;2022-11-12T00:46:50;9.17;;;5.10;;
16760;SDS011;8498;52.516;13.790;2022-11-12T00:52:31;11.63;;;5.63;;
16760;SDS011;8498;52.516;13.790;2022-11-12T00:58:11;8.60;;;5.13;;
16760;SDS011;8498;52.516;13.790;2022-11-12T01:03:53;8.63;;;5.50;;
16760;SDS011;8498;52.516;13.790;2022-11-12T01:09:36;9.50;;;4.67;;
16760;SDS011;8498;52.516;13.790;2022-11-12T01:15:17;10.57;;;4.93;;
16760;SDS011;8498;52.516;13.790;2022-11-12T01:20:59;13.27;;;5.07;;
16760;SDS011;8498;52.516;13.790;2022-11-12T01:26:44;10.87;;;4.97;;
16760;SDS011;8498;52.516;13.790;2022-11-12T01:32:24;6.83;;;5.40;;
16760;SDS011;8498;52.516;13.790;2022-11-12T01:38:06;9.17;;;5.03;;
16760;SDS011;8498;52.516;13.790;2022-11-12T01:44:05;8.60;;;4.97;;
16760;SDS011;8498;52.516;13.790;2022-11-12T01:49:59;8.43;;;5.10;;
16760;SDS011;8498;52.516;13.790;2022-11-12T01:55:43;10.70;;;4.97;;
16760;SDS011;8498;52.516;13.790;2022-11-12T02:01:24;8.93;;;4.77;;
16760;SDS011;8498;52.516;13.790;2022-11-12T02:07:06;9.13;;;4.40;;
16760;SDS011;8498;52.516;13.790;2022-11-12T02:12:49;7.60;;;5.33;;
16760;SDS011;8498;52.516;13.790;2022-11-12T02:18:51;8.80;;;4.67;;
16760;SDS011;8498;52.516;13.790;2022-11-12T02:24:33;8.40;;;4.97;;
16760;SDS011;8498;52.516;13.790;2022-11-12T02:30:14;6.40;;;4.47;;
16760;SDS011;8498;52.516;13.790;2022-11-12T02:35:55;9.50;;;4.73;;
16760;SDS011;8498;52.516;13.790;2022-11-12T02:41:36;8.57;;;4.57;;
16760;SDS011;8498;52.516;13.790;2022-11-12T02:47:17;8.20;;;4.43;;
16760;SDS011;8498;52.516;13.790;2022-11-12T02:52:58;9.83;;;4.67;;
16760;SDS011;8498;52.516;13.790;2022-11-12T02:58:39;10.87;;;4.87;;
16760;SDS011;8498;52.516;13.790;2022-11-12T03:04:20;8.13;;;4.67;;
16760;SDS011;8498;52.516;13.790;2022-11-12T03:10:00;5.77;;;3.97;;
16760;SDS011;8498;52.516;13.790;2022-11-12T03:15:41;8.67;;;4.47;;
16760;SDS011;8498;52.516;13.790;2022-11-12T03:21:22;7.47;;;4.60;;
16760;SDS011;8498;52.516;13.790;2022-11-12T03:27:03;6.37;;;4.40;;
16760;SDS011;8498;52.516;13.790;2022-11-12T03:32:44;8.23;;;4.67;;
16760;SDS011;8498;52.516;13.790;2022-11-12T03:38:25;5.87;;;4.00;;
16760;SDS011;8498;52.516;13.790;2022-11-12T03:44:06;5.13;;;4.00;;
16760;SDS011;8498;52.516;13.790;2022-11-12T03:49:47;7.67;;;3.73;;
16760;SDS011;8498;52.516;13.790;2022-11-12T03:55:28;7.00;;;4.13;;
16760;SDS011;8498;52.516;13.790;2022-11-12T04:01:09;6.60;;;4.30;;
16760;SDS011;8498;52.516;13.790;2022-11-12T04:06:51;4.87;;;3.67;;
16760;SDS011;8498;52.516;13.790;2022-11-12T04:12:50;5.93;;;3.70;;
16760;SDS011;8498;52.516;13.790;2022-11-12T04:18:50;7.03;;;4.10;;
16760;SDS011;8498;52.516;13.790;2022-11-12T04:24:52;4.53;;;3.23;;
16760;SDS011;8498;52.516;13.790;2022-11-12T04:30:51;5.40;;;3.57;;
16760;SDS011;8498;52.516;13.790;2022-11-12T04:36:32;5.47;;;4.13;;
16760;SDS011;8498;52.516;13.790;2022-11-12T04:42:13;8.80;;;4.70;;
16760;SDS011;8498;52.516;13.790;2022-11-12T04:48:13;6.53;;;3.53;;
16760;SDS011;8498;52.516;13.790;2022-11-12T04:53:54;10.30;;;4.43;;
16760;SDS011;8498;52.516;13.790;2022-11-12T04:59:35;9.57;;;4.70;;
16760;SDS011;8498;52.516;13.790;2022-11-12T05:05:16;13.80;;;4.93;;
16760;SDS011;8498;52.516;13.790;2022-11-12T05:10:57;12.37;;;4.50;;
16760;SDS011;8498;52.516;13.790;2022-11-12T05:16:38;8.90;;;5.03;;
16760;SDS011;8498;52.516;13.790;2022-11-12T05:22:19;10.43;;;4.50;;
16760;SDS011;8498;52.516;13.790;2022-11-12T05:28:20;8.17;;;5.00;;
16760;SDS011;8498;52.516;13.790;2022-11-12T05:34:00;5.73;;;4.60;;
16760;SDS011;8498;52.516;13.790;2022-11-12T05:39:42;13.77;;;4.93;;
16760;SDS011;8498;52.516;13.790;2022-11-12T05:45:22;5.33;;;4.20;;
16760;SDS011;8498;52.516;13.790;2022-11-12T05:51:04;7.70;;;4.17;;
16760;SDS011;8498;52.516;13.790;2022-11-12T05:56:53;10.87;;;4.10;;
16760;SDS011;8498;52.516;13.790;2022-11-12T06:02:34;7.10;;;4.90;;
16760;SDS011;8498;52.516;13.790;2022-11-12T06:08:15;10.50;;;5.33;;
16760;SDS011;8498;52.516;13.790;2022-11-12T06:13:56;9.90;;;5.17;;
16760;SDS011;8498;52.516;13.790;2022-11-12T06:19:38;13.27;;;7.00;;
16760;SDS011;8498;52.516;13.790;2022-11-12T06:25:18;17.07;;;7.70;;
16760;SDS011;8498;52.516;13.790;2022-11-12T06:30:59;12.97;;;6.93;;
16760;SDS011;8498;52.516;13.790;2022-11-12T06:36:39;8.77;;;5.20;;
16760;SDS011;8498;52.516;13.790;2022-11-12T06:42:21;11.80;;;6.87;;
16760;SDS011;8498;52.516;13.790;2022-11-12T06:48:02;11.13;;;6.67;;
16760;SDS011;8498;52.516;13.790;2022-11-12T06:53:43;15.63;;;6.37;;
16760;SDS011;8498;52.516;13.790;2022-11-12T06:59:24;11.27;;;5.97;;
16760;SDS011;8498;52.516;13.790;2022-11-12T07:05:05;10.57;;;5.37;;
16760;SDS011;8498;52.516;13.790;2022-11-12T07:10:46;7.73;;;4.83;;
16760;SDS011;8498;52.516;13.790;2022-11-12T07:16:27;8.90;;;5.77;;
16760;SDS011;8498;52.516;13.790;2022-11-12T07:22:08;14.07;;;7.27;;
16760;SDS011;8498;52.516;13.790;2022-11-12T07:27:49;20.73;;;7.30;;
16760;SDS011;8498;52.516;13.790;2022-11-12T07:33:32;11.67;;;5.60;;
16760;SDS011;8498;52.516;13.790;2022-11-12T07:39:13;13.90;;;5.77;;
16760;SDS011;8498;52.516;13.790;2022-11-12T07:44:54;12.87;;;5.73;;
16760;SDS011;8498;52.516;13.790;2022-11-12T07:50:35;8.43;;;4.47;;
16760;SDS011;8498;52.516;13.790;2022-11-12T07:56:16;10.20;;;5.27;;
16760;SDS011;8498;52.516;13.790;2022-11-12T08:01:59;10.27;;;5.17;;
16760;SDS011;8498;52.516;13.790;2022-11-12T08:07:41;10.60;;;5.97;;
16760;SDS011;8498;52.516;13.790;2022-11-12T08:13:22;6.87;;;4.77;;
16760;SDS011;8498;52.516;13.790;2022-11-12T08:19:03;10.77;;;5.10;;
16760;SDS011;8498;52.516;13.790;2022-11-12T08:24:45;13.00;;;6.27;;
16760;SDS011;8498;52.516;13.790;2022-11-12T08:30:26;6.93;;;5.10;;
16760;SDS011;8498;52.516;13.790;2022-11-12T08:36:08;11.63;;;5.17;;
16760;SDS011;8498;52.516;13.790;2022-11-12T08:41:50;9.07;;;5.30;;
16760;SDS011;8498;52.516;13.790;2022-11-12T08:47:31;15.30;;;7.70;;
16760;SDS011;8498;52.516;13.790;2022-11-12T08:53:12;16.90;;;8.47;;
16760;SDS011;8498;52.516;13.790;2022-11-12T08:58:53;11.23;;;6.17;;
16760;SDS011;8498;52.516;13.790;2022-11-12T09:04:34;9.73;;;5.27;;
16760;SDS011;8498;52.516;13.790;2022-11-12T09:10:15;11.30;;;5.73;;
16760;SDS011;8498;52.516;13.790;2022-11-12T09:16:00;11.00;;;6.03;;
16760;SDS011;8498;52.516;13.790;2022-11-12T09:21:42;16.93;;;7.87;;
16760;SDS011;8498;52.516;13.790;2022-11-12T09:27:25;12.30;;;7.10;;
16760;SDS011;8498;52.516;13.790;2022-11-12T09:33:07;14.83;;;7.40;;
16760;SDS011;8498;52.516;13.790;2022-11-12T09:38:48;18.53;;;9.13;;
16760;SDS011;8498;52.516;13.790;2022-11-12T09:44:28;17.53;;;8.53;;
16760;SDS011;8498;52.516;13.790;2022-11-12T09:56:20;18.13;;;9.27;;
16760;SDS011;8498;52.516;13.790;2022-11-12T10:20:12;26.17;;;10.83;;
16760;SDS011;8498;52.516;13.790;2022-11-12T10:26:00;23.63;;;11.53;;
16760;SDS011;8498;52.516;13.790;2022-11-12T10:31:52;29.13;;;13.00;;
16760;SDS011;8498;52.516;13.790;2022-11-12T10:38:17;23.80;;;12.43;;
16760;SDS011;8498;52.516;13.790;2022-11-12T10:43:40;29.63;;;11.87;;
16760;SDS011;8498;52.516;13.790;2022-11-12T10:49:33;33.40;;;12.07;;
16760;SDS011;8498;52.516;13.790;2022-11-12T10:55:15;27.37;;;12.27;;
16760;SDS011;8498;52.516;13.790;2022-11-12T11:01:00;23.87;;;10.57;;
16760;SDS011;8498;52.516;13.790;2022-11-12T11:06:46;26.37;;;10.87;;
16760;SDS011;8498;52.516;13.790;2022-11-12T11:12:29;23.73;;;11.57;;
16760;SDS011;8498;52.516;13.790;2022-11-12T11:18:11;19.67;;;9.83;;
16760;SDS011;8498;52.516;13.790;2022-11-12T11:29:50;19.10;;;8.73;;
16760;SDS011;8498;52.516;13.790;2022-11-12T11:35:40;21.43;;;9.00;;
16760;SDS011;8498;52.516;13.790;2022-11-12T11:41:47;23.10;;;9.47;;
16760;SDS011;8498;52.516;13.790;2022-11-12T11:59:52;16.43;;;7.53;;
16760;SDS011;8498;52.516;13.790;2022-11-12T12:05:48;20.27;;;7.50;;
16760;SDS011;8498;52.516;13.790;2022-11-12T12:29:29;15.10;;;6.97;;
16760;SDS011;8498;52.516;13.790;2022-11-12T12:35:21;19.93;;;11.73;;
16760;SDS011;8498;52.516;13.790;2022-11-12T12:47:09;13.93;;;6.60;;
16760;SDS011;8498;52.516;13.790;2022-11-12T12:53:03;16.73;;;6.87;;
16760;SDS011;8498;52.516;13.790;2022-11-12T12:58:55;14.60;;;6.27;;
16760;SDS011;8498;52.516;13.790;2022-11-12T13:04:52;17.10;;;6.20;;
16760;SDS011;8498;52.516;13.790;2022-11-12T13:22:47;11.40;;;5.13;;
16760;SDS011;8498;52.516;13.790;2022-11-12T13:28:29;11.47;;;5.40;;
16760;SDS011;8498;52.516;13.790;2022-11-12T13:34:20;6.60;;;4.17;;
16760;SDS011;8498;52.516;13.790;2022-11-12T13:40:08;7.20;;;3.87;;
16760;SDS011;8498;52.516;13.790;2022-11-12T13:45:58;10.30;;;4.43;;
16760;SDS011;8498;52.516;13.790;2022-11-12T13:51:51;7.73;;;4.43;;
16760;SDS011;8498;52.516;13.790;2022-11-12T13:57:36;7.90;;;4.23;;
16760;SDS011;8498;52.516;13.790;2022-11-12T14:03:17;6.50;;;3.90;;
16760;SDS011;8498;52.516;13.790;2022-11-12T14:14:55;14.47;;;8.20;;
16760;SDS011;8498;52.516;13.790;2022-11-12T14:20:53;9.30;;;4.77;;
16760;SDS011;8498;52.516;13.790;2022-11-12T14:26:38;5.57;;;3.60;;
16760;SDS011;8498;52.516;13.790;2022-11-12T14:32:21;8.57;;;4.63;;
16760;SDS011;8498;52.516;13.790;2022-11-12T14:43:55;13.30;;;6.63;;
16760;SDS011;8498;52.516;13.790;2022-11-12T14:49:52;11.33;;;5.70;;
16760;SDS011;8498;52.516;13.790;2022-11-12T14:55:34;10.27;;;6.87;;
16760;SDS011;8498;52.516;13.790;2022-11-12T15:01:21;9.10;;;6.80;;
16760;SDS011;8498;52.516;13.790;2022-11-12T15:19:13;9.17;;;4.73;;
16760;SDS011;8498;52.516;13.790;2022-11-12T15:31:16;4.17;;;3.77;;
16760;SDS011;8498;52.516;13.790;2022-11-12T15:37:02;7.53;;;4.33;;
16760;SDS011;8498;52.516;13.790;2022-11-12T15:43:01;11.23;;;5.90;;
16760;SDS011;8498;52.516;13.790;2022-11-12T15:48:43;9.90;;;5.10;;
16760;SDS011;8498;52.516;13.790;2022-11-12T15:54:24;7.43;;;3.90;;
16760;SDS011;8498;52.516;13.790;2022-11-12T16:00:09;12.23;;;4.47;;
16760;SDS011;8498;52.516;13.790;2022-11-12T16:05:53;6.47;;;3.63;;
16760;SDS011;8498;52.516;13.790;2022-11-12T16:11:34;7.43;;;4.20;;
16760;SDS011;8498;52.516;13.790;2022-11-12T16:17:15;7.20;;;4.07;;
16760;SDS011;8498;52.516;13.790;2022-11-12T16:22:57;11.67;;;5.13;;
16760;SDS011;8498;52.516;13.790;2022-11-12T16:28:39;6.70;;;4.30;;
16760;SDS011;8498;52.516;13.790;2022-11-12T16:34:20;11.03;;;5.27;;
16760;SDS011;8498;52.516;13.790;2022-11-12T16:40:01;17.13;;;7.27;;
16760;SDS011;8498;52.516;13.790;2022-11-12T16:45:45;17.00;;;7.40;;
16760;SDS011;8498;52.516;13.790;2022-11-12T16:51:26;17.40;;;8.67;;
16760;SDS011;8498;52.516;13.790;2022-11-12T16:57:07;17.43;;;6.80;;
16760;SDS011;8498;52.516;13.790;2022-11-12T17:02:50;13.30;;;7.00;;
16760;SDS011;8498;52.516;13.790;2022-11-12T17:08:33;13.90;;;6.57;;
16760;SDS011;8498;52.516;13.790;2022-11-12T17:14:14;14.07;;;6.83;;
16760;SDS011;8498;52.516;13.790;2022-11-12T17:19:55;15.17;;;6.50;;
16760;SDS011;8498;52.516;13.790;2022-11-12T17:25:36;13.30;;;7.47;;
16760;SDS011;8498;52.516;13.790;2022-11-12T17:31:18;16.87;;;8.13;;
16760;SDS011;8498;52.516;13.790;2022-11-12T17:37:01;14.93;;;6.77;;
16760;SDS011;8498;52.516;13.790;2022-11-12T17:42:42;11.57;;;7.03;;
16760;SDS011;8498;52.516;13.790;2022-11-12T17:48:23;11.87;;;6.13;;
16760;SDS011;8498;52.516;13.790;2022-11-12T17:54:04;14.63;;;7.53;;
16760;SDS011;8498;52.516;13.790;2022-11-12T17:59:46;19.37;;;8.47;;
16760;SDS011;8498;52.516;13.790;2022-11-12T18:05:27;16.10;;;8.30;;
16760;SDS011;8498;52.516;13.790;2022-11-12T18:11:09;21.37;;;9.97;;
16760;SDS011;8498;52.516;13.790;2022-11-12T18:16:51;21.63;;;9.47;;
16760;SDS011;8498;52.516;13.790;2022-11-12T18:22:32;19.13;;;9.90;;
16760;SDS011;8498;52.516;13.790;2022-11-12T18:28:13;35.43;;;19.60;;
16760;SDS011;8498;52.516;13.790;2022-11-12T18:33:54;43.40;;;24.07;;
16760;SDS011;8498;52.516;13.790;2022-11-12T18:39:36;40.27;;;21.60;;
16760;SDS011;8498;52.516;13.790;2022-11-12T18:45:17;62.97;;;31.97;;
16760;SDS011;8498;52.516;13.790;2022-11-12T18:50:58;59.07;;;28.93;;
16760;SDS011;8498;52.516;13.790;2022-11-12T18:56:41;59.90;;;30.50;;
16760;SDS011;8498;52.516;13.790;2022-11-12T19:02:22;49.40;;;26.67;;
16760;SDS011;8498;52.516;13.790;2022-11-12T19:08:02;53.87;;;27.17;;
16760;SDS011;8498;52.516;13.790;2022-11-12T19:13:43;68.47;;;30.30;;
16760;SDS011;8498;52.516;13.790;2022-11-12T19:19:24;56.10;;;26.10;;
16760;SDS011;8498;52.516;13.790;2022-11-12T19:25:05;59.27;;;28.70;;
16760;SDS011;8498;52.516;13.790;2022-11-12T19:30:47;55.83;;;26.27;;
16760;SDS011;8498;52.516;13.790;2022-11-12T19:36:28;57.17;;;26.77;;
16760;SDS011;8498;52.516;13.790;2022-11-12T19:42:10;52.10;;;25.27;;
16760;SDS011;8498;52.516;13.790;2022-11-12T19:47:51;58.03;;;25.33;;
16760;SDS011;8498;52.516;13.790;2022-11-12T19:53:33;59.53;;;26.37;;
16760;SDS011;8498;52.516;13.790;2022-11-12T19:59:16;63.40;;;28.17;;
16760;SDS011;8498;52.516;13.790;2022-11-12T20:04:59;67.73;;;29.63;;
16760;SDS011;8498;52.516;13.790;2022-11-12T20:10:41;70.47;;;29.23;;
16760;SDS011;8498;52.516;13.790;2022-11-12T20:16:24;86.93;;;36.27;;
16760;SDS011;8498;52.516;13.790;2022-11-12T20:22:05;96.20;;;41.27;;
16760;SDS011;8498;52.516;13.790;2022-11-12T20:27:47;145.53;;;54.50;;
16760;SDS011;8498;52.516;13.790;2022-11-12T20:33:28;134.30;;;53.33;;
16760;SDS011;8498;52.516;13.790;2022-11-12T20:39:10;152.40;;;59.27;;
16760;SDS011;8498;52.516;13.790;2022-11-12T20:44:51;203.13;;;79.57;;
16760;SDS011;8498;52.516;13.790;2022-11-12T20:50:33;200.97;;;71.90;;
16760;SDS011;8498;52.516;13.790;2022-11-12T20:56:17;162.80;;;62.00;;
16760;SDS011;8498;52.516;13.790;2022-11-12T21:02:03;125.07;;;50.10;;
16760;SDS011;8498;52.516;13.790;2022-11-12T21:07:44;108.43;;;42.53;;
16760;SDS011;8498;52.516;13.790;2022-11-12T21:13:26;106.57;;;41.93;;
16760;SDS011;8498;52.516;13.790;2022-11-12T21:19:07;99.43;;;35.77;;
16760;SDS011;8498;52.516;13.790;2022-11-12T21:24:48;154.70;;;53.73;;
16760;SDS011;8498;52.516;13.790;2022-11-12T21:30:30;94.70;;;35.67;;
16760;SDS011;8498;52.516;13.790;2022-11-12T21:36:12;142.23;;;49.97;;
16760;SDS011;8498;52.516;13.790;2022-11-12T21:41:56;134.40;;;46.90;;
16760;SDS011;8498;52.516;13.790;2022-11-12T21:47:37;143.00;;;48.60;;
16760;SDS011;8498;52.516;13.790;2022-11-12T21:53:18;90.10;;;33.57;;
16760;SDS011;8498;52.516;13.790;2022-11-12T21:59:00;86.40;;;31.23;;
16760;SDS011;8498;52.516;13.790;2022-11-12T22:04:44;74.60;;;28.77;;
16760;SDS011;8498;52.516;13.790;2022-11-12T22:10:25;64.10;;;25.47;;
16760;SDS011;8498;52.516;13.790;2022-11-12T22:16:27;47.40;;;19.87;;
16760;SDS011;8498;52.516;13.790;2022-11-12T22:22:09;42.40;;;19.23;;
16760;SDS011;8498;52.516;13.790;2022-11-12T22:27:50;45.33;;;17.47;;
16760;SDS011;8498;52.516;13.790;2022-11-12T22:33:31;42.83;;;17.17;;
16760;SDS011;8498;52.516;13.790;2022-11-12T22:39:12;36.80;;;16.47;;
16760;SDS011;8498;52.516;13.790;2022-11-12T22:44:53;37.40;;;17.00;;
16760;SDS011;8498;52.516;13.790;2022-11-12T22:50:34;32.83;;;16.50;;
16760;SDS011;8498;52.516;13.790;2022-11-12T22:56:15;38.77;;;16.13;;
16760;SDS011;8498;52.516;13.790;2022-11-12T23:01:56;43.87;;;16.80;;
16760;SDS011;8498;52.516;13.790;2022-11-12T23:07:37;34.53;;;15.20;;
16760;SDS011;8498;52.516;13.790;2022-11-12T23:13:18;38.93;;;16.07;;
16760;SDS011;8498;52.516;13.790;2022-11-12T23:18:59;32.83;;;14.83;;
16760;SDS011;8498;52.516;13.790;2022-11-12T23:24:40;30.73;;;13.90;;
16760;SDS011;8498;52.516;13.790;2022-11-12T23:30:21;29.87;;;13.53;;
16760;SDS011;8498;52.516;13.790;2022-11-12T23:36:03;32.27;;;14.03;;
16760;SDS011;8498;52.516;13.790;2022-11-12T23:41:45;33.77;;;14.10;;
16760;SDS011;8498;52.516;13.790;2022-11-12T23:47:26;31.50;;;13.13;;
16760;SDS011;8498;52.516;13.790;2022-11-12T23:53:06;28.87;;;13.40;;
16760;SDS011;8498;52.516;13.790;2022-11-12T23:58:48;27.90;;;12.77;;
